Time;durP1;ratioP1;P1;durP2;ratioP2;P2;SDS_P1;SDS_P2;PMS_P1;PMS_P2;Temp;Humidity;BMP_temperature;BMP_pressure;BME280_temperature;BME280_humidity;BME280_pressure;Samples;Min_cycle;Max_cycle;Signal;HPM_P1;HPM_P2
2023/02/12 00:00:29;;;;;;;18.45;11.05;;;;;;;12.08;63.24;103943.56;4923994;28;20051;-41
2023/02/12 00:02:54;;;;;;;17.80;10.73;;;;;;;12.15;63.39;103942.19;4926763;28;20105;-40
2023/02/12 00:05:20;;;;;;;17.60;10.50;;;;;;;12.28;62.79;103951.59;4923796;28;20032;-42
2023/02/12 00:07:45;;;;;;;16.83;10.25;;;;;;;12.24;63.04;103945.31;4927219;28;20262;-40
2023/02/12 00:10:11;;;;;;;19.40;10.10;;;;;;;12.19;62.91;103941.56;4923430;28;20044;-41
2023/02/12 00:12:37;;;;;;;17.25;10.20;;;;;;;12.29;62.91;103946.47;4927061;28;20539;-41
2023/02/12 00:15:03;;;;;;;18.38;10.57;;;;;;;12.29;62.71;103948.19;4927332;28;20041;-42
2023/02/12 00:17:28;;;;;;;15.73;9.63;;;;;;;12.34;62.65;103949.34;4923383;28;20128;-44
2023/02/12 00:19:53;;;;;;;16.85;9.85;;;;;;;12.30;62.56;103947.38;4926484;28;20040;-42
2023/02/12 00:22:19;;;;;;;17.77;10.40;;;;;;;12.27;62.70;103948.09;4924155;28;20036;-42
2023/02/12 00:24:44;;;;;;;17.95;10.32;;;;;;;12.44;61.97;103949.91;4926905;28;20102;-42
2023/02/12 00:27:09;;;;;;;17.38;9.88;;;;;;;12.49;61.34;103948.47;4923168;28;20144;-42
2023/02/12 00:29:36;;;;;;;18.98;10.07;;;;;;;12.38;61.64;103952.19;4926934;28;20043;-42
2023/02/12 00:32:01;;;;;;;17.77;10.68;;;;;;;12.25;62.21;103952.34;4927051;28;20059;-41
2023/02/12 00:34:27;;;;;;;16.45;10.10;;;;;;;12.16;62.60;103950.13;4923341;28;20035;-41
2023/02/12 00:36:52;;;;;;;15.13;9.60;;;;;;;12.33;61.93;103947.53;4927123;28;20035;-41
2023/02/12 00:39:17;;;;;;;19.40;10.48;;;;;;;12.39;61.65;103946.16;4923633;28;20456;-43
2023/02/12 00:41:43;;;;;;;19.58;9.95;;;;;;;12.24;61.89;103947.03;4927050;28;20067;-40
2023/02/12 00:44:08;;;;;;;19.10;10.38;;;;;;;12.14;62.42;103945.59;4923985;28;20054;-41
2023/02/12 00:46:33;;;;;;;18.13;10.35;;;;;;;12.15;62.63;103940.47;4926108;28;20102;-41
2023/02/12 00:48:59;;;;;;;17.88;9.93;;;;;;;12.17;62.67;103944.06;4925757;28;20066;-41
2023/02/12 00:51:24;;;;;;;18.00;10.77;;;;;;;11.94;63.28;103947.13;4922132;28;20148;-41
2023/02/12 00:53:49;;;;;;;19.00;10.20;;;;;;;11.95;63.31;103948.03;4926401;28;20089;-42
2023/02/12 00:56:15;;;;;;;17.38;10.23;;;;;;;12.10;62.76;103939.31;4922070;28;20541;-43
2023/02/12 00:58:40;;;;;;;16.42;9.70;;;;;;;12.06;62.67;103944.31;4925579;28;20689;-45
2023/02/12 01:01:05;;;;;;;16.63;9.13;;;;;;;11.68;63.32;103943.00;4921706;28;20357;-40
2023/02/12 01:03:31;;;;;;;15.52;8.90;;;;;;;11.86;63.05;103947.50;4924529;28;20523;-42
2023/02/12 01:05:56;;;;;;;13.18;8.13;;;;;;;12.12;62.05;103935.09;4925410;28;20043;-41
2023/02/12 01:08:22;;;;;;;14.90;8.32;;;;;;;12.26;61.76;103937.56;4921446;28;20580;-42
2023/02/12 01:10:55;;;;;;;14.43;8.65;;;;;;;12.31;61.44;103938.72;4926012;28;20593;-41
2023/02/12 01:13:20;;;;;;;15.95;8.93;;;;;;;12.27;61.38;103939.34;4921805;28;20681;-40
2023/02/12 01:15:45;;;;;;;14.25;8.07;;;;;;;12.13;61.64;103941.22;4925322;28;20042;-40
2023/02/12 01:18:11;;;;;;;16.00;8.82;;;;;;;11.97;62.07;103947.28;4921529;28;20044;-45
2023/02/12 01:20:38;;;;;;;15.73;8.35;;;;;;;12.09;62.04;103937.50;4925406;28;20567;-41
2023/02/12 01:23:05;;;;;;;17.40;8.07;;;;;;;12.22;61.59;103935.56;4925345;28;20056;-41
2023/02/12 01:25:31;;;;;;;14.18;7.88;;;;;;;12.26;61.46;103942.81;4921672;28;20040;-44
2023/02/12 01:27:56;;;;;;;13.90;7.95;;;;;;;12.00;61.54;103941.34;4925297;28;20252;-43
2023/02/12 01:30:23;;;;;;;11.77;7.60;;;;;;;12.14;61.21;103933.44;4921133;28;20039;-41
2023/02/12 01:32:48;;;;;;;15.55;7.88;;;;;;;12.27;60.74;103937.63;4925709;28;20101;-41
2023/02/12 01:35:13;;;;;;;11.38;7.55;;;;;;;12.16;61.02;103936.13;4921396;28;20045;-41
2023/02/12 01:37:39;;;;;;;11.85;7.40;;;;;;;12.13;61.24;103930.75;4925411;28;20063;-43
2023/02/12 01:40:08;;;;;;;11.90;7.43;;;;;;;12.20;60.86;103935.47;4925604;28;20561;-41
2023/02/12 01:42:33;;;;;;;13.55;7.55;;;;;;;12.29;60.73;103929.88;4922381;28;20039;-41
2023/02/12 01:45:11;;;;;;;14.18;7.43;;;;;;;12.17;60.72;103938.84;4924470;28;20490;-41
2023/02/12 01:47:37;;;;;;;12.55;8.02;;;;;;;12.01;61.09;103938.81;4922184;28;20386;-41
2023/02/12 01:50:03;;;;;;;14.75;8.07;;;;;;;11.89;61.74;103943.34;4925895;28;20034;-41
2023/02/12 01:52:33;;;;;;;13.60;7.72;;;;;;;12.06;61.25;103939.06;4921963;28;20036;-41
2023/02/12 01:55:03;;;;;;;13.02;7.65;;;;;;;12.10;60.86;103939.31;4924655;28;20035;-42
2023/02/12 01:57:32;;;;;;;10.88;7.03;;;;;;;12.13;61.00;103941.22;4920263;28;20063;-45
2023/02/12 02:00:00;;;;;;;12.15;7.70;;;;;;;12.10;60.99;103936.69;4923311;28;20066;-43
2023/02/12 02:02:26;;;;;;;15.05;8.05;;;;;;;11.98;61.43;103946.47;4920010;28;20055;-44
2023/02/12 02:04:57;;;;;;;14.95;8.02;;;;;;;12.02;61.41;103934.47;4923848;28;20039;-43
2023/02/12 02:07:22;;;;;;;11.95;7.70;;;;;;;12.05;61.42;103934.66;4919686;28;20031;-42
2023/02/12 02:09:49;;;;;;;13.68;7.53;;;;;;;12.03;61.00;103938.88;4924886;28;20076;-44
2023/02/12 02:15:01;;;;;;;11.30;7.53;;;;;;;12.03;61.17;103944.09;4924323;28;20039;-41
2023/02/12 02:17:38;;;;;;;14.02;7.47;;;;;;;12.02;60.99;103945.81;4919766;28;21582;-42
2023/02/12 02:20:16;;;;;;;11.55;7.38;;;;;;;11.95;61.12;103948.94;4923188;28;20040;-41
2023/02/12 02:23:03;;;;;;;11.77;6.85;;;;;;;12.07;61.07;103943.50;4920482;28;20147;-41
2023/02/12 02:25:53;;;;;;;12.55;7.70;;;;;;;12.05;60.56;103950.34;4919586;28;20398;-41
2023/02/12 02:28:40;;;;;;;11.90;7.15;;;;;;;12.03;60.53;103942.41;4919282;28;20619;-41
2023/02/12 02:31:23;;;;;;;13.48;7.50;;;;;;;12.04;60.77;103941.59;4924990;28;20075;-38
2023/02/12 02:34:02;;;;;;;10.13;6.47;;;;;;;12.14;60.54;103943.00;4919901;28;20043;-42
2023/02/12 02:36:39;;;;;;;11.82;7.40;;;;;;;12.07;60.64;103938.25;4919245;28;20040;-41
2023/02/12 02:39:33;;;;;;;12.70;7.40;;;;;;;11.69;61.42;103944.78;4922024;28;20400;-40
2023/02/12 02:42:12;;;;;;;10.02;6.20;;;;;;;11.56;61.35;103943.97;4919589;28;20039;-39
2023/02/12 02:44:44;;;;;;;10.23;6.50;;;;;;;11.68;60.44;103939.47;4919411;28;20043;-40
2023/02/12 02:47:12;;;;;;;9.45;5.43;;;;;;;11.47;60.14;103939.13;4919525;28;20119;-43
2023/02/12 02:49:53;;;;;;;9.32;5.50;;;;;;;11.50;59.90;103936.69;4922343;28;20043;-44
2023/02/12 02:52:29;;;;;;;9.90;4.78;;;;;;;11.84;59.25;103930.81;4919198;28;20035;-42
2023/02/12 02:55:00;;;;;;;9.43;5.10;;;;;;;12.05;58.33;103921.56;4924893;28;20382;-42
2023/02/12 02:57:34;;;;;;;8.23;4.70;;;;;;;11.92;58.54;103938.28;4921838;28;20049;-40
2023/02/12 03:00:19;;;;;;;7.25;5.00;;;;;;;12.01;58.74;103930.97;4925600;28;20028;-42
2023/02/12 03:02:51;;;;;;;7.13;4.60;;;;;;;12.06;58.69;103921.66;4921789;28;20086;-41
2023/02/12 03:05:28;;;;;;;7.47;4.80;;;;;;;12.09;58.37;103928.75;4922898;28;20039;-41
2023/02/12 03:08:05;;;;;;;7.45;4.53;;;;;;;11.96;59.06;103927.19;4925674;28;20533;-40
2023/02/12 03:10:37;;;;;;;6.78;4.45;;;;;;;12.07;58.61;103926.09;4921828;28;20115;-42
2023/02/12 03:13:10;;;;;;;6.88;4.40;;;;;;;12.09;58.78;103923.53;4926175;28;20102;-40
2023/02/12 03:15:40;;;;;;;7.20;4.22;;;;;;;12.10;58.85;103926.25;4922225;28;20043;-41
2023/02/12 03:18:13;;;;;;;7.80;4.32;;;;;;;12.14;58.75;103927.28;4925477;28;20040;-44
2023/02/12 03:20:46;;;;;;;6.63;4.03;;;;;;;12.16;58.56;103921.34;4921725;28;20123;-42
2023/02/12 03:23:17;;;;;;;6.18;4.00;;;;;;;12.12;58.23;103922.00;4921807;28;20039;-46
2023/02/12 03:25:58;;;;;;;7.40;4.22;;;;;;;12.06;58.23;103926.00;4922819;28;20067;-42
2023/02/12 03:28:33;;;;;;;6.68;3.95;;;;;;;12.07;58.57;103919.94;4919160;28;20036;-41
2023/02/12 03:31:17;;;;;;;7.45;4.07;;;;;;;12.08;58.58;103919.13;4923741;28;20048;-43
2023/02/12 03:34:03;;;;;;;7.30;3.80;;;;;;;11.95;58.42;103919.28;4920797;28;20067;-40
2023/02/12 03:37:01;;;;;;;6.18;3.70;;;;;;;12.17;57.69;103909.19;4920189;28;20067;-46
2023/02/12 03:39:45;;;;;;;7.57;3.80;;;;;;;12.14;57.50;103917.75;4922390;28;20044;-42
2023/02/12 03:42:21;;;;;;;6.13;3.53;;;;;;;12.13;57.48;103920.28;4921719;28;20437;-40
2023/02/12 03:44:59;;;;;;;6.88;3.65;;;;;;;12.15;57.56;103919.53;4924764;28;20036;-41
2023/02/12 03:47:42;;;;;;;5.53;3.50;;;;;;;12.03;57.45;103916.25;4919945;28;20036;-42
2023/02/12 03:50:35;;;;;;;7.38;3.67;;;;;;;11.61;58.38;103925.16;4921771;28;20058;-42
2023/02/12 03:53:01;;;;;;;5.43;3.38;;;;;;;11.74;57.84;103925.06;4926633;28;20105;-41
2023/02/12 03:55:26;;;;;;;8.35;3.30;;;;;;;11.58;57.47;103930.22;4922405;28;20402;-40
2023/02/12 03:57:59;;;;;;;7.30;3.35;;;;;;;11.88;56.96;103931.09;4924431;28;20125;-44
2023/02/12 04:00:25;;;;;;;5.50;3.13;;;;;;;12.09;56.31;103934.00;4918233;28;20036;-41
2023/02/12 04:02:52;;;;;;;7.60;3.20;;;;;;;12.12;56.57;103927.25;4921530;28;20115;-41
2023/02/12 04:05:24;;;;;;;7.72;3.17;;;;;;;12.15;56.60;103931.72;4918326;28;20028;-42
2023/02/12 04:07:51;;;;;;;6.55;2.83;;;;;;;12.08;56.77;103935.72;4921113;28;20070;-43
2023/02/12 04:10:17;;;;;;;4.32;3.13;;;;;;;12.01;57.34;103933.59;4920921;28;20050;-44
2023/02/12 04:12:55;;;;;;;4.85;3.13;;;;;;;12.06;57.63;103933.84;4924836;28;20517;-41
2023/02/12 04:15:55;;;;;;;5.38;3.05;;;;;;;11.88;57.15;103938.03;4928073;28;20040;-42
2023/02/12 04:18:32;;;;;;;5.35;3.08;;;;;;;11.89;57.71;103942.44;4920746;28;20035;-42
2023/02/12 04:21:04;;;;;;;4.43;2.83;;;;;;;11.97;57.59;103949.00;4925459;28;20536;-42
2023/02/12 04:23:38;;;;;;;5.32;3.00;;;;;;;11.88;57.63;103952.00;4921546;28;20036;-40
2023/02/12 04:26:38;;;;;;;5.95;3.03;;;;;;;11.83;57.01;103948.25;4925077;28;20044;-41
2023/02/12 04:29:25;;;;;;;7.38;3.13;;;;;;;11.99;57.08;103953.50;4921587;28;20051;-46
2023/02/12 04:31:56;;;;;;;6.97;3.10;;;;;;;11.99;56.89;103956.13;4921993;28;20040;-41
2023/02/12 04:34:27;;;;;;;5.15;3.13;;;;;;;12.03;57.15;103957.19;4921038;28;20555;-41
2023/02/12 04:37:01;;;;;;;5.45;3.10;;;;;;;12.08;57.19;103955.72;4924773;28;20127;-44
2023/02/12 04:39:30;;;;;;;5.13;2.95;;;;;;;12.09;57.19;103968.00;4922607;28;20024;-41
2023/02/12 04:42:00;;;;;;;6.55;3.10;;;;;;;12.19;56.64;103960.78;4925592;28;20154;-42
2023/02/12 04:44:31;;;;;;;6.65;3.20;;;;;;;12.18;56.49;103966.81;4923546;28;20043;-41
2023/02/12 04:46:56;;;;;;;6.80;3.10;;;;;;;12.18;56.25;103963.28;4926556;28;20074;-41
2023/02/12 04:49:23;;;;;;;6.20;3.78;;;;;;;12.16;56.75;103971.03;4922055;28;20067;-41
2023/02/12 04:51:49;;;;;;;4.60;3.10;;;;;;;12.17;56.60;103972.84;4924349;28;20036;-40
2023/02/12 04:54:16;;;;;;;6.00;3.55;;;;;;;12.16;56.64;103965.81;4920565;28;20132;-41
2023/02/12 04:56:42;;;;;;;5.30;3.42;;;;;;;11.90;57.51;103967.75;4924103;28;20036;-41
2023/02/12 04:59:08;;;;;;;5.30;3.17;;;;;;;12.05;57.64;103966.03;4920532;28;20043;-43
2023/02/12 05:01:34;;;;;;;6.10;3.30;;;;;;;12.13;57.01;103962.13;4924397;28;20055;-41
2023/02/12 05:04:00;;;;;;;5.22;3.30;;;;;;;12.09;56.80;103962.75;4924204;28;20043;-42
2023/02/12 05:06:25;;;;;;;6.70;3.60;;;;;;;11.86;57.59;103966.69;4920853;28;20050;-42
2023/02/12 05:08:54;;;;;;;6.50;3.70;;;;;;;11.96;57.54;103957.66;4923710;28;20047;-40
2023/02/12 05:11:19;;;;;;;5.07;3.15;;;;;;;12.08;57.01;103958.34;4920434;28;20032;-41
2023/02/12 05:13:49;;;;;;;4.65;3.30;;;;;;;12.09;57.02;103966.28;4924332;28;20074;-41
2023/02/12 05:16:15;;;;;;;4.70;3.17;;;;;;;12.17;56.50;103959.78;4920448;28;20569;-42
2023/02/12 05:18:40;;;;;;;7.50;3.75;;;;;;;11.95;56.33;103958.50;4923996;28;20131;-41
2023/02/12 05:21:05;;;;;;;5.00;3.60;;;;;;;12.04;55.89;103957.28;4922537;28;20043;-40
2023/02/12 05:23:34;;;;;;;6.30;4.00;;;;;;;12.06;56.12;103950.44;4921082;28;20047;-41
2023/02/12 05:26:02;;;;;;;7.35;4.05;;;;;;;12.01;56.04;103953.59;4923766;28;20043;-43
2023/02/12 05:28:28;;;;;;;5.82;4.25;;;;;;;12.02;56.45;103955.38;4920695;28;20040;-44
2023/02/12 05:30:59;;;;;;;5.78;3.75;;;;;;;12.06;56.76;103946.91;4924631;28;20114;-42
2023/02/12 05:33:24;;;;;;;6.05;4.38;;;;;;;12.03;56.54;103959.81;4920376;28;20094;-42
2023/02/12 05:35:50;;;;;;;8.40;4.53;;;;;;;11.86;56.25;103966.69;4924141;28;20493;-43
2023/02/12 05:38:15;;;;;;;7.63;4.15;;;;;;;11.97;56.51;103960.34;4919961;28;20520;-42
2023/02/12 05:40:41;;;;;;;8.13;4.80;;;;;;;11.87;57.03;103965.88;4923818;28;20471;-41
2023/02/12 05:43:07;;;;;;;5.70;4.15;;;;;;;11.84;57.22;103963.09;4924504;28;20036;-42
2023/02/12 05:45:32;;;;;;;7.22;4.50;;;;;;;11.96;57.05;103963.78;4920477;28;20382;-44
2023/02/12 05:47:58;;;;;;;6.18;4.43;;;;;;;12.01;57.27;103961.44;4925146;28;20139;-41
2023/02/12 05:50:23;;;;;;;5.72;4.13;;;;;;;12.00;57.34;103968.38;4921309;28;20043;-40
2023/02/12 05:52:48;;;;;;;7.03;4.50;;;;;;;12.00;57.88;103967.50;4926069;28;20070;-41
2023/02/12 05:55:14;;;;;;;5.80;4.30;;;;;;;12.01;57.57;103966.69;4922234;28;20687;-43
2023/02/12 05:57:39;;;;;;;9.57;4.40;;;;;;;11.98;58.16;103971.72;4925901;28;20052;-40
2023/02/12 06:00:06;;;;;;;6.65;4.30;;;;;;;12.09;57.62;103968.88;4925794;28;20086;-39
2023/02/12 06:02:35;;;;;;;8.50;4.70;;;;;;;12.08;57.29;103968.81;4922614;28;20039;-41
2023/02/12 06:05:00;;;;;;;8.32;4.53;;;;;;;11.94;57.65;103967.13;4925698;28;20044;-41
2023/02/12 06:07:26;;;;;;;8.20;4.78;;;;;;;11.94;57.70;103969.75;4922255;28;20101;-41
2023/02/12 06:09:52;;;;;;;7.60;5.22;;;;;;;11.92;57.96;103969.66;4925159;28;20039;-41
2023/02/12 06:12:17;;;;;;;10.38;5.68;;;;;;;11.96;57.47;103970.72;4921819;28;20039;-43
2023/02/12 06:14:42;;;;;;;7.85;5.30;;;;;;;11.97;57.60;103970.81;4925562;28;20036;-42
2023/02/12 06:17:08;;;;;;;7.97;4.95;;;;;;;11.94;57.50;103965.44;4922959;28;20047;-44
2023/02/12 06:19:33;;;;;;;6.95;5.22;;;;;;;11.85;58.21;103966.59;4924401;28;20043;-43
2023/02/12 06:21:58;;;;;;;8.38;5.82;;;;;;;11.90;58.10;103967.75;4926278;28;20036;-41
2023/02/12 06:24:24;;;;;;;8.15;5.20;;;;;;;12.08;57.32;103974.94;4921896;28;20126;-41
2023/02/12 06:26:50;;;;;;;8.27;5.20;;;;;;;12.05;56.85;103969.53;4925402;28;20303;-41
2023/02/12 06:29:17;;;;;;;8.48;5.47;;;;;;;11.91;57.61;103961.72;4921395;28;20035;-41
2023/02/12 06:31:43;;;;;;;7.50;5.38;;;;;;;11.96;57.49;103962.88;4925137;28;20034;-40
2023/02/12 06:34:10;;;;;;;7.68;5.68;;;;;;;11.90;57.88;103962.53;4921864;28;20440;-44
2023/02/12 06:36:38;;;;;;;8.50;6.07;;;;;;;11.89;57.73;103964.28;4925149;28;20032;-41
2023/02/12 06:39:04;;;;;;;9.20;5.68;;;;;;;11.87;58.35;103967.59;4925057;28;20031;-41
2023/02/12 06:41:30;;;;;;;7.78;5.30;;;;;;;11.86;58.13;103971.94;4921438;28;20036;-42
2023/02/12 06:43:55;;;;;;;8.35;6.20;;;;;;;11.86;58.40;103963.19;4925392;28;20069;-45
2023/02/12 06:46:20;;;;;;;8.95;6.10;;;;;;;11.84;58.15;103972.63;4920690;28;20056;-43
2023/02/12 06:48:46;;;;;;;11.85;5.90;;;;;;;11.83;58.42;103968.25;4925305;28;20046;-41
2023/02/12 06:51:15;;;;;;;9.27;5.95;;;;;;;11.93;58.27;103965.34;4921789;28;20039;-41
2023/02/12 06:53:41;;;;;;;9.85;5.70;;;;;;;12.05;56.67;103974.78;4925355;28;20109;-42
2023/02/12 06:56:11;;;;;;;9.10;5.78;;;;;;;12.06;57.02;103973.06;4926329;28;20036;-41
2023/02/12 06:58:43;;;;;;;10.18;6.18;;;;;;;11.92;57.71;103984.44;4923094;28;20465;-41
2023/02/12 07:01:16;;;;;;;9.13;5.82;;;;;;;11.79;58.30;103981.13;4922720;28;20046;-40
2023/02/12 07:03:49;;;;;;;11.00;5.68;;;;;;;11.81;58.57;103976.00;4925938;28;20040;-40
2023/02/12 07:06:15;;;;;;;10.10;5.60;;;;;;;11.92;58.12;103985.34;4922042;28;20063;-40
2023/02/12 07:08:40;;;;;;;9.68;6.03;;;;;;;11.80;58.49;103989.88;4925671;28;20055;-43
2023/02/12 07:11:06;;;;;;;9.95;6.10;;;;;;;11.79;58.58;103993.28;4923866;28;20040;-40
2023/02/12 07:13:33;;;;;;;8.75;5.82;;;;;;;11.83;58.78;103987.44;4923053;28;20509;-41
2023/02/12 07:16:05;;;;;;;9.95;5.78;;;;;;;11.69;58.60;103999.69;4923406;28;20097;-45
2023/02/12 07:18:31;;;;;;;9.18;6.00;;;;;;;11.74;59.02;103999.97;4919201;28;20119;-42
2023/02/12 07:20:57;;;;;;;9.15;6.20;;;;;;;11.77;58.71;104000.16;4923880;28;20529;-42
2023/02/12 07:23:22;;;;;;;8.98;6.05;;;;;;;11.71;58.82;104008.47;4920940;28;20046;-42
2023/02/12 07:25:58;;;;;;;9.55;5.72;;;;;;;11.92;57.54;104005.34;4924102;28;20114;-42
2023/02/12 07:28:24;;;;;;;10.27;6.45;;;;;;;11.81;58.17;104012.59;4919199;28;20545;-42
2023/02/12 07:30:50;;;;;;;9.05;6.10;;;;;;;11.82;57.97;104014.41;4925321;28;20035;-41
2023/02/12 07:33:15;;;;;;;9.23;5.95;;;;;;;11.77;58.20;104021.06;4922751;28;20481;-42
2023/02/12 07:35:41;;;;;;;11.77;6.00;;;;;;;11.81;58.46;104016.91;4925678;28;20072;-41
2023/02/12 07:38:06;;;;;;;8.85;6.30;;;;;;;11.74;58.50;104015.66;4922221;28;20510;-41
2023/02/12 07:40:31;;;;;;;10.30;6.10;;;;;;;11.85;58.57;104016.28;4925855;28;20413;-42
2023/02/12 07:42:57;;;;;;;11.32;6.38;;;;;;;11.62;57.81;104026.25;4926419;28;20036;-42
2023/02/12 07:45:23;;;;;;;10.27;6.28;;;;;;;11.85;58.05;104017.16;4925106;28;20028;-43
2023/02/12 07:47:49;;;;;;;9.60;6.38;;;;;;;11.91;58.39;104025.38;4928723;28;20042;-41
2023/02/12 07:50:14;;;;;;;8.52;6.00;;;;;;;12.06;57.76;104023.66;4924421;28;20386;-42
2023/02/12 07:52:40;;;;;;;12.65;6.57;;;;;;;12.00;58.21;104019.78;4926129;28;20039;-41
2023/02/12 07:55:05;;;;;;;11.90;6.82;;;;;;;11.96;58.35;104029.16;4925305;28;20035;-43
2023/02/12 07:57:31;;;;;;;9.32;6.38;;;;;;;12.07;58.18;104027.19;4921726;28;20035;-41
2023/02/12 07:59:56;;;;;;;10.23;6.85;;;;;;;12.10;57.17;104019.50;4924997;28;20185;-41
2023/02/12 08:02:24;;;;;;;9.90;6.57;;;;;;;12.15;57.74;104025.88;4921948;28;20123;-41
2023/02/12 08:04:53;;;;;;;10.95;7.30;;;;;;;11.81;57.12;104024.75;4925549;28;20035;-40
2023/02/12 08:07:19;;;;;;;10.38;6.60;;;;;;;12.09;56.64;104023.81;4921661;28;20040;-43
2023/02/12 08:09:44;;;;;;;10.20;6.90;;;;;;;12.19;56.14;104031.38;4925050;28;20639;-41
2023/02/12 08:12:09;;;;;;;10.88;6.90;;;;;;;12.29;56.04;104029.28;4921701;28;20032;-41
2023/02/12 08:14:34;;;;;;;13.00;7.50;;;;;;;12.22;55.97;104029.75;4925484;28;20043;-42
2023/02/12 08:17:00;;;;;;;11.70;7.28;;;;;;;12.11;56.59;104023.91;4925214;28;20067;-41
2023/02/12 08:19:25;;;;;;;10.93;6.90;;;;;;;12.23;56.96;104024.59;4921142;28;20085;-41
2023/02/12 08:21:52;;;;;;;11.20;7.00;;;;;;;12.35;56.40;104024.41;4925236;28;20054;-46
2023/02/12 08:24:17;;;;;;;11.82;7.45;;;;;;;12.10;56.42;104027.34;4922468;28;20036;-41
2023/02/12 08:26:43;;;;;;;10.63;6.93;;;;;;;12.16;57.25;104031.19;4927322;28;20078;-41
2023/02/12 08:29:12;;;;;;;10.75;7.05;;;;;;;12.35;56.70;104037.47;4922124;28;20105;-40
2023/02/12 08:31:40;;;;;;;13.40;7.53;;;;;;;12.37;55.45;104042.00;4926272;28;20532;-41
2023/02/12 08:34:05;;;;;;;11.77;8.25;;;;;;;12.25;54.73;104037.78;4926631;28;20332;-41
2023/02/12 08:36:37;;;;;;;11.40;7.80;;;;;;;12.36;54.81;104031.44;4920595;28;20042;-44
2023/02/12 08:41:30;;;;;;;13.45;8.20;;;;;;;12.27;53.38;104036.13;4922872;28;20223;-44
2023/02/12 08:43:58;;;;;;;14.70;9.32;;;;;;;12.37;53.92;104041.09;4921094;28;20097;-44
2023/02/12 08:46:26;;;;;;;13.48;8.68;;;;;;;12.59;53.86;104044.06;4921393;28;20467;-46
2023/02/12 08:48:53;;;;;;;12.57;8.30;;;;;;;12.69;53.78;104046.38;4925391;28;20036;-45
2023/02/12 08:51:22;;;;;;;15.20;8.82;;;;;;;12.75;53.63;104044.09;4922099;28;20063;-44
2023/02/12 08:53:52;;;;;;;15.57;9.18;;;;;;;12.69;52.22;104046.38;4925540;28;20071;-46
2023/02/12 08:56:17;;;;;;;18.10;10.05;;;;;;;12.57;52.53;104050.94;4921753;28;20089;-44
2023/02/12 08:58:44;;;;;;;17.45;9.85;;;;;;;12.43;52.55;104054.50;4927046;28;20040;-46
2023/02/12 09:01:14;;;;;;;16.50;10.50;;;;;;;12.44;52.87;104051.97;4927962;28;20065;-44
2023/02/12 09:03:40;;;;;;;16.98;10.10;;;;;;;12.40;52.50;104063.06;4928930;28;20043;-45
2023/02/12 09:06:07;;;;;;;16.77;9.63;;;;;;;12.64;52.46;104053.06;4925137;28;20410;-45
2023/02/12 09:08:34;;;;;;;17.27;10.80;;;;;;;12.45;52.32;104064.22;4921705;28;20062;-44
2023/02/12 09:11:03;;;;;;;18.10;10.95;;;;;;;12.35;52.80;104061.94;4925425;28;20444;-45
2023/02/12 09:13:29;;;;;;;17.80;11.05;;;;;;;12.33;52.49;104063.53;4921990;28;23980;-45
2023/02/12 09:15:54;;;;;;;16.92;10.52;;;;;;;12.44;52.70;104062.44;4926437;28;20051;-47
2023/02/12 09:18:19;;;;;;;19.02;11.13;;;;;;;12.39;52.48;104070.84;4922432;28;20036;-45
2023/02/12 09:20:45;;;;;;;18.90;11.13;;;;;;;12.57;51.85;104069.25;4925765;28;20047;-44
2023/02/12 09:23:12;;;;;;;18.88;10.93;;;;;;;12.57;51.38;104069.25;4921623;28;20093;-46
2023/02/12 09:25:40;;;;;;;17.38;10.38;;;;;;;12.77;51.38;104067.75;4925810;28;20529;-46
2023/02/12 09:28:05;;;;;;;15.32;10.82;;;;;;;12.75;51.67;104071.97;4924871;28;20051;-49
2023/02/12 09:30:30;;;;;;;17.10;11.05;;;;;;;13.06;50.96;104078.09;4935704;28;20358;-43
2023/02/12 09:32:56;;;;;;;16.70;10.77;;;;;;;13.08;51.55;104075.56;4925786;28;20097;-44
2023/02/12 09:35:22;;;;;;;18.00;11.07;;;;;;;13.18;51.07;104081.41;4921348;28;20070;-45
2023/02/12 09:37:47;;;;;;;18.52;11.02;;;;;;;13.15;51.55;104068.16;4925243;28;20067;-44
2023/02/12 09:40:24;;;;;;;22.02;10.82;;;;;;;12.98;50.88;104067.22;4921169;28;20066;-45
2023/02/12 09:43:05;;;;;;;20.27;11.10;;;;;;;13.16;51.25;104075.19;4925345;28;20071;-46
2023/02/12 09:45:54;;;;;;;20.13;11.40;;;;;;;13.24;51.70;104073.88;4921365;28;20066;-44
2023/02/12 09:48:52;;;;;;;17.65;11.23;;;;;;;13.22;51.18;104079.88;4920460;28;20111;-44
2023/02/12 09:51:18;;;;;;;17.15;11.10;;;;;;;13.11;50.85;104068.78;4921140;28;20489;-45
2023/02/12 09:53:47;;;;;;;18.63;11.63;;;;;;;12.99;50.44;104074.22;4925334;28;20043;-44
2023/02/12 09:56:17;;;;;;;16.45;11.50;;;;;;;13.29;50.34;104079.38;4925519;28;20071;-43
2023/02/12 09:58:50;;;;;;;19.00;11.25;;;;;;;13.35;50.04;104082.31;4921697;28;20050;-44
2023/02/12 10:01:18;;;;;;;17.90;11.68;;;;;;;13.00;50.33;104070.78;4921520;28;20039;-45
2023/02/12 10:03:46;;;;;;;18.90;12.07;;;;;;;13.04;50.44;104069.25;4925972;28;20122;-47
2023/02/12 10:06:25;;;;;;;18.45;11.45;;;;;;;13.20;49.88;104069.28;4921622;28;20043;-44
2023/02/12 10:09:16;;;;;;;18.92;11.43;;;;;;;12.83;50.17;104063.75;4925566;28;20490;-43
2023/02/12 10:12:03;;;;;;;20.00;12.02;;;;;;;13.12;50.18;104072.28;4922325;28;20123;-45
2023/02/12 10:15:16;;;;;;;19.02;11.30;;;;;;;13.25;50.16;104074.78;4922444;28;20031;-45
2023/02/12 10:17:47;;;;;;;19.98;11.75;;;;;;;13.32;49.99;104067.31;4917082;28;20028;-46
2023/02/12 10:20:47;;;;;;;18.75;11.80;;;;;;;13.46;49.53;104073.28;4922839;28;20027;-44
2023/02/12 10:23:46;;;;;;;17.50;11.93;;;;;;;13.61;49.93;104074.06;4925280;28;20174;-43
2023/02/12 10:26:21;;;;;;;19.13;11.82;;;;;;;13.57;48.87;104066.88;4922109;28;20097;-44
2023/02/12 10:28:48;;;;;;;17.38;12.00;;;;;;;13.60;49.33;104071.41;4920223;28;20405;-44
2023/02/12 10:31:36;;;;;;;20.00;12.50;;;;;;;13.06;50.28;104072.84;4924049;28;20036;-45
2023/02/12 10:34:15;;;;;;;19.10;11.27;;;;;;;13.40;49.46;104075.59;4920585;28;20040;-48
2023/02/12 10:36:46;;;;;;;23.00;11.85;;;;;;;13.37;49.22;104075.41;4923919;28;20040;-45
2023/02/12 10:39:15;;;;;;;19.95;11.88;;;;;;;12.96;50.07;104070.56;4920039;28;20044;-46
2023/02/12 10:41:46;;;;;;;19.00;12.20;;;;;;;13.12;50.38;104074.88;4920037;28;20043;-44
2023/02/12 10:44:11;;;;;;;19.83;12.52;;;;;;;12.82;50.84;104068.91;4923977;28;20039;-43
2023/02/12 10:46:37;;;;;;;17.98;10.80;;;;;;;13.21;49.57;104078.06;4920312;28;20447;-44
2023/02/12 10:49:04;;;;;;;18.88;12.07;;;;;;;13.02;49.87;104066.56;4923391;28;20115;-46
2023/02/12 10:51:48;;;;;;;21.17;11.85;;;;;;;13.37;49.16;104076.31;4923909;28;20035;-44
2023/02/12 10:54:37;;;;;;;20.85;11.57;;;;;;;13.61;47.89;104073.16;4920620;28;20511;-45
2023/02/12 10:57:13;;;;;;;16.40;10.85;;;;;;;13.65;47.54;104070.81;4920830;28;20051;-45
2023/02/12 10:59:41;;;;;;;22.08;11.75;;;;;;;13.32;48.53;104071.66;4922975;28;20191;-44
2023/02/12 11:02:28;;;;;;;18.70;11.65;;;;;;;13.12;48.99;104070.59;4928008;28;20032;-42
2023/02/12 11:04:54;;;;;;;24.15;11.95;;;;;;;13.04;49.64;104074.50;4923979;28;20493;-44
2023/02/12 11:07:21;;;;;;;18.10;11.13;;;;;;;13.60;47.98;104072.28;4927776;28;20028;-48
2023/02/12 11:09:48;;;;;;;21.08;11.32;;;;;;;13.58;48.24;104065.16;4927760;28;20035;-45
2023/02/12 11:12:47;;;;;;;18.92;10.95;;;;;;;13.32;49.00;104062.09;4923464;28;20044;-48
2023/02/12 11:15:15;;;;;;;19.40;11.20;;;;;;;13.37;48.01;104063.22;4921844;28;20043;-49
2023/02/12 11:17:43;;;;;;;20.00;11.20;;;;;;;13.10;49.37;104069.59;4926102;28;20044;-48
2023/02/12 11:20:15;;;;;;;17.40;10.55;;;;;;;13.11;49.74;104066.16;4923665;28;20035;-45
2023/02/12 11:22:50;;;;;;;17.70;10.88;;;;;;;13.38;48.30;104058.88;4928593;28;20038;-44
2023/02/12 11:25:16;;;;;;;17.55;10.80;;;;;;;13.11;48.91;104060.03;4923647;28;20115;-47
2023/02/12 11:27:42;;;;;;;19.48;10.90;;;;;;;12.61;49.96;104060.78;4923998;28;20421;-58
2023/02/12 11:30:19;;;;;;;19.83;10.40;;;;;;;13.04;48.94;104060.50;4926558;28;20036;-44
2023/02/12 11:32:45;;;;;;;17.38;10.63;;;;;;;13.09;49.54;104065.16;4923139;28;20520;-47
2023/02/12 11:35:25;;;;;;;19.50;11.10;;;;;;;13.47;48.29;104066.34;4926760;28;20027;-45
2023/02/12 11:37:54;;;;;;;18.17;10.25;;;;;;;13.67;47.63;104063.00;4924659;28;20043;-43